Weather observations for the past three days for
Sacramento Mather Airport
Metric (Imperial)
Date Time (pdt) Wind (kph) Vis. (km) Weather Sky Cond. Temperature (ºC) Relative Humidity Wind Chill (°C) Heat Index (°C) Pressure Precipitation (cm)
Air Dwpt 6 hour altimeter (cm) sea level (mb) 1 hr 3 hr 6 hr
Max. Min.
02 17:55 SW 13 16.09 Fair CLR 21 13 60% 75.69 0.0
02 17:35 SW 13 16.09 Fair CLR 22 13 57% 75.69 0.0
02 17:15 SW 17 16.09 Fair CLR 22 14 61% 75.72 0.0
02 16:55 SW 17 16.09 Fair CLR 22 14 61% 75.72 0.0
02 16:35 SW 13 16.09 Fair CLR 22 13 57% 75.72 0.0
02 16:15 SW 15 16.09 Fair CLR 23 13 53% 75.74 0.0
02 15:55 SW 15 16.09 Fair CLR 0 0 0% 75.77 0.0
02 15:35 SW 13 16.09 Fair CLR 23 13 53% 75.77 0.0
02 15:15 SW 11 14.48 Fair CLR 22 14 61% 75.79 0.0
02 14:55 SW 13 16.09 Fair CLR 23 15 61% 75.82 0.0
02 14:35 SW 15 16.09 Fair CLR 22 13 57% 75.84 0.0
02 14:15 SW 13 G 22 16.09 Fair CLR 22 15 65% 75.87 0.0
02 13:55 SW 17 16.09 Fair CLR 22 14 61% 75.87 0.0
02 13:35 SW 15 16.09 Fair CLR 22 14 61% 75.9 0.0
02 13:15 SW 19 16.09 Fair CLR 21 15 69% 75.9 0.0
02 12:55 S 13 G 24 16.09 Fair CLR 20 15 73% 75.9 0.0
02 12:35 SW 17 16.09 Fair CLR 20 16 78% 75.92 0.0
02 12:15 S 17 16.09 Fair CLR 20 17 83% 75.92 0.0
02 11:55 Vrbl 11 G 24 16.09 Fair CLR 19 16 83% 75.95 0.0
02 11:35 SW 17 16.09 Fair CLR 18 17 94% 75.95 0.0
02 11:15 SW 17 16.09 Fair CLR 18 16 88% 75.95 0.0
02 10:55 SW 15 16.09 Fair CLR 19 16 83% 75.95 0.0
02 10:35 SW 22 0.24 Light Rain VV000 17 16 94% 75.95 0.0
02 10:15 SW 19 0.24 Light Rain VV000 17 16 94% 75.92 0.0
02 09:55 SW 13 14.48 Light Rain CLR 17 16 94% 75.92 0.0
02 09:35 S 13 14.48 Light Rain CLR 17 16 94% 75.92 0.0
02 09:15 SW 9 14.48 Fair CLR 16 16 100% 75.92 0.0
02 08:55 S 9 6.44 Fog/Mist CLR 15 15 100% 75.9 0.0
02 08:35 S 11 16.09 Fair CLR 14 14 100% 75.9 0.0
02 08:15 Calm 16.09 Fair CLR 13 13 100% 75.9 0.0
02 07:55 Calm 14.48 Fair CLR 13 13 100% 75.9 0.0
02 07:30 SE 7 12.87 Fair CLR 12 12 100% 75.87 0.0
02 07:15 SE 7 11.27 Fair CLR 12 12 100% 75.87 0.0
02 06:55 SE 7 11.27 Fair CLR 11 11 100% 75.84 0.0
02 06:35 SE 7 9.66 Fog/Mist CLR 11 11 100% 75.84 0.0
02 06:15 SE 9 9.66 Fog/Mist CLR 10 10 100% 9 75.82 0.0
02 05:55 SE 11 11.27 Fair CLR 11 11 100% 75.82 0.0
02 05:35 SE 9 12.87 Fair CLR 10 10 100% 9 75.82 0.0
02 05:15 SE 11 12.87 Fair CLR 10 10 100% 9 75.79 0.0
02 04:55 SE 9 16.09 Fair CLR 10 10 100% 9 75.79 0.0
02 04:30 S 9 16.09 Fair CLR 11 11 100% 75.82 0.0
02 04:15 S 9 16.09 Fair CLR 12 12 100% 75.82 0.0
02 03:55 S 7 16.09 Fair CLR 12 12 100% 75.82 0.0
02 03:15 S 11 16.09 Fair CLR 12 12 100% 75.82 0.0
02 02:55 S 11 16.09 Fair CLR 13 13 100% 75.82 0.0
02 02:35 S 15 16.09 Fair CLR 13 13 100% 75.82 0.0
02 02:15 SW 9 16.09 Fair CLR 13 13 100% 75.82 0.0
02 01:55 S 11 16.09 Fair CLR 14 14 100% 75.82 0.0
02 01:30 S 13 16.09 Fair CLR 14 14 100% 75.84 0.0
02 01:15 S 13 16.09 Fair CLR 14 14 100% 75.84 0.0
02 00:55 S 13 16.09 Fair CLR 14 14 100% 75.84 0.0
02 00:35 SE 13 16.09 Fair CLR 13 13 100% 75.84 0.0
02 00:15 SE 13 16.09 Fair CLR 13 13 100% 75.84 0.0
01 23:55 SE 13 16.09 Fair CLR 14 14 100% 75.84 0.0
01 23:35 SE 13 16.09 Fair CLR 14 14 100% 75.84 0.0
01 23:15 SE 13 16.09 Fair CLR 14 14 100% 75.84 0.0
01 22:55 SE 13 16.09 Fair CLR 16 16 100% 75.84 0.0
01 22:35 SE 9 16.09 Fair CLR 15 15 100% 75.84 0.0
01 22:15 S 9 16.09 Fair CLR 17 17 100% 75.82 0.0
01 21:55 S 9 16.09 Fair CLR 17 17 100% 75.82 0.0
01 21:35 S 11 16.09 Fair CLR 17 17 100% 75.82 0.0
01 21:15 SW 11 14.48 Light Rain CLR 19 17 88% 75.79 0.0
01 20:55 SW 11 8.05 Light Drizzle CLR 19 17 88% 75.77 0.0
01 20:35 SW 11 16.09 Fair CLR 20 16 78% 75.77 0.0
01 20:15 SW 13 16.09 Fair CLR 20 15 73% 75.74 0.0
01 19:55 SW 11 16.09 Fair CLR 21 16 73% 75.74 0.0
01 19:35 S 9 16.09 Fair CLR 22 16 69% 75.72 0.0
01 19:15 S 11 16.09 Fair CLR 0 0 0% 75.72 0.0
01 18:55 S 11 16.09 Fair CLR 25 16 57% 26 75.72 0.0
01 18:35 S 13 16.09 Fair CLR 27 16 51% 27 75.72 0.0
01 18:15 S 13 16.09 Fair CLR 27 16 51% 27 75.74 0.0
01 17:50 S 17 16.09 Fair CLR 27 16 51% 27 75.74 0.0
01 17:35 S 13 16.09 Fair CLR 28 16 48% 28 75.74 0.0
01 17:15 SW 7 16.09 Fair CLR 28 15 45% 28 75.74 0.0
01 16:55 SW 7 16.09 Fair CLR 28 15 45% 28 75.74 0.0
01 16:35 SW 11 16.09 Fair CLR 28 15 45% 28 75.77 0.0
01 16:15 S 7 16.09 Fair CLR 28 15 45% 28 75.77 0.0
01 15:55 SW 7 16.09 Fair CLR 29 15 43% 29 75.79 0.0
01 15:35 S 9 16.09 Fair CLR 28 15 45% 28 75.82 0.0
01 14:55 Vrbl 7 16.09 Fair CLR 28 15 45% 28 75.87 0.0
01 14:35 Vrbl 9 16.09 Fair CLR 27 15 48% 27 75.9 0.0
01 14:15 S 9 16.09 Fair CLR 27 16 51% 27 75.9 0.0
01 13:55 Vrbl 9 16.09 Fair CLR 27 15 48% 27 75.92 0.0
01 13:35 SW 15 16.09 Fair CLR 27 16 51% 27 75.92 0.0
01 13:15 SW 13 16.09 Fair CLR 26 16 54% 27 75.95 0.0
01 12:55 Vrbl 11 16.09 Fair CLR 25 15 54% 26 75.95 0.0
01 12:35 Vrbl 11 16.09 Fair CLR 24 15 57% 25 75.97 0.0
01 12:15 Vrbl 11 11.27 Fair CLR 24 16 61% 25 76 0.0
01 11:55 SW 13 8.05 Fair with Haze CLR 23 15 61% 76 0.0
01 11:35 SW 15 6.44 Fair with Haze CLR 22 15 65% 76.02 0.0
01 11:15 S 13 16.09 Fair CLR 22 16 69% 76.02 0.0
01 10:55 SW 9 16.09 Fair CLR 21 16 73% 76.02 0.0
01 10:35 Vrbl 7 16.09 Fair CLR 20 15 73% 76.02 0.0
01 10:15 S 11 11.27 Light Rain CLR 20 15 73% 76.02 0.0
01 09:55 S 7 16.09 Fair CLR 19 15 78% 76.02 0.0
01 09:35 SE 11 16.09 Fair CLR 19 16 83% 76.02 0.0
01 09:15 SE 7 14.48 Fair CLR 18 16 88% 76.05 0.0
01 08:55 S 9 16.09 Fair CLR 17 16 94% 76.05 0.0
01 08:35 S 9 16.09 Fair CLR 16 15 94% 76.05 0.0
01 08:15 SE 7 16.09 Fair CLR 15 15 100% 76.02 0.0
01 07:55 S 7 16.09 Fair CLR 15 15 100% 76.02 0.0
01 07:30 SE 6 14.48 Fair CLR 14 14 100% 76 0.0
01 07:15 Calm 14.48 Fair CLR 13 13 100% 75.97 0.0
01 06:55 Calm 14.48 Fair CLR 12 12 100% 75.97 0.0
01 06:35 SW 6 14.48 Fair CLR 12 12 100% 75.95 0.0
01 06:15 SW 9 14.48 Fair CLR 12 12 100% 75.92 0.0
01 05:55 S 9 14.48 Fair CLR 11 11 100% 75.92 0.0
01 05:35 S 9 16.09 Fair CLR 11 11 100% 75.9 0.0
01 05:15 S 7 16.09 Fair CLR 10 10 100% 9 75.9 0.0
01 04:55 SE 9 16.09 Fair CLR 10 10 100% 9 75.9 0.0
01 04:35 SE 7 16.09 Fair CLR 11 11 100% 75.87 0.0
01 04:15 S 7 16.09 Fair CLR 11 11 100% 75.9 0.0
01 03:55 S 9 16.09 Fair CLR 11 11 100% 75.9 0.0
01 03:35 SE 9 16.09 Fair CLR 11 11 100% 75.9 0.0
01 03:15 SE 11 16.09 Fair CLR 11 11 100% 75.87 0.0
01 02:55 SE 13 16.09 Fair CLR 11 11 100% 75.9 0.0
01 02:35 SE 13 16.09 Fair CLR 12 12 100% 75.9 0.0
01 02:15 SE 11 16.09 Fair CLR 12 12 100% 75.9 0.0
01 01:55 SE 9 16.09 Fair CLR 12 12 100% 75.9 0.0
01 01:30 SE 7 16.09 Fair CLR 13 13 100% 75.9 0.0
01 00:55 Calm 16.09 Fair CLR 13 13 100% 75.9 0.0
01 00:35 SE 7 16.09 Fair CLR 14 14 100% 75.9 0.0
01 00:15 S 13 16.09 Fair CLR 14 14 100% 75.9 0.0
30 23:55 SE 11 16.09 Fair CLR 14 14 100% 75.9 0.0
30 23:35 SE 9 16.09 Fair CLR 14 14 100% 75.9 0.0
30 23:15 SE 11 16.09 Fair CLR 15 15 100% 75.9 0.0
30 22:55 SE 11 16.09 Fair CLR 15 15 100% 75.9 0.0
30 22:35 S 7 16.09 Fair CLR 15 15 100% 75.87 0.0
30 22:15 SE 11 16.09 Fair CLR 16 16 100% 75.87 0.0
30 21:55 SE 6 16.09 Fair CLR 16 14 88% 75.87 0.0
30 21:35 S 7 16.09 Fair CLR 17 14 83% 75.84 0.0
30 21:15 SW 17 16.09 Fair CLR 19 13 68% 75.82 0.0
30 20:55 SW 13 16.09 Fair CLR 19 14 73% 75.82 0.0
30 20:35 S 9 16.09 Fair CLR 20 15 73% 75.79 0.0
30 20:15 S 11 16.09 Fair CLR 20 16 78% 75.79 0.0
30 19:55 SW 11 16.09 Fair CLR 22 17 73% 75.77 0.0
30 19:35 SW 9 16.09 Fair CLR 23 16 65% 75.77 0.0
30 19:15 SW 9 16.09 Fair CLR 25 15 54% 26 75.74 0.0
30 18:55 SW 13 16.09 Fair CLR 26 15 51% 27 75.74 0.0
30 18:35 SW 17 16.09 Fair CLR 27 14 45% 27 75.74 0.0
30 18:15 SW 20 16.09 Fair CLR 28 14 42% 28 75.74 0.0
30 17:55 SW 19 16.09 Fair CLR 28 14 42% 28 75.74 0.0
30 17:35 S 9 16.09 Fair CLR 29 11 33% 28 75.74 0.0
30 17:15 Vrbl 7 G 19 16.09 Fair CLR 29 10 31% 28 75.74 0.0
30 16:55 W 11 16.09 Fair CLR 29 9 29% 28 75.77 0.0
30 16:35 Calm 16.09 Fair CLR 29 9 29% 28 75.77 0.0
30 16:15 NW 6 16.09 Fair CLR 29 10 31% 28 75.79 0.0
30 15:55 Vrbl 9 16.09 Fair CLR 29 10 31% 28 75.79 0.0
30 15:35 NW 15 16.09 Fair CLR 28 10 32% 27 75.82 0.0
30 15:10 Vrbl 9 16.09 Fair CLR 28 11 35% 27 75.84 0.0
30 14:55 Vrbl 6 16.09 Fair CLR 28 11 35% 27 75.84 0.0
30 14:35 W 13 16.09 Fair CLR 28 11 35% 27 75.87 0.0
30 14:15 SW 7 16.09 Fair CLR 27 11 37% 27 75.9 0.0
30 13:55 Vrbl 9 16.09 Fair CLR 26 12 42% 26 75.9 0.0
30 13:35 Vrbl 7 16.09 Fair CLR 26 11 39% 26 75.9 0.0
30 13:15 Vrbl 7 G 19 16.09 Fair CLR 26 11 39% 26 75.92 0.0
30 12:55 NW 7 16.09 Fair CLR 25 11 42% 26 75.95 0.0
30 12:35 Vrbl 7 14.48 Fair CLR 25 12 44% 26 75.95 0.0
30 12:15 W 11 16.09 Fair CLR 24 11 44% 25 75.97 0.0
30 11:55 Vrbl 6 16.09 Fair CLR 23 12 50% 76 0.0
30 11:35 Vrbl 7 8.05 Light Rain CLR 23 12 50% 76.02 0.0
30 11:15 Vrbl 6 14.48 Fair CLR 22 12 53% 76.02 0.0
30 10:55 Vrbl 7 14.48 Fair CLR 21 12 57% 76.02 0.0
30 10:35 Vrbl 7 16.09 Fair CLR 21 13 60% 76.02 0.0
30 09:55 Calm 16.09 Fair CLR 19 13 68% 76.05 0.0
30 09:35 Calm 12.87 Fair CLR 18 13 73% 76.05 0.0
30 09:10 Calm 16.09 Fair CLR 18 14 78% 76.05 0.0
30 08:55 Calm 16.09 Fair CLR 17 14 83% 76.05 0.0
30 08:35 Calm 16.09 Fair CLR 16 14 88% 76.05 0.0
30 08:15 S 6 16.09 Fair CLR 15 13 88% 76.05 0.0
30 07:55 Calm 16.09 Fair CLR 15 14 94% 76.05 0.0
30 07:35 Calm 16.09 Fair CLR 14 14 100% 76.05 0.0
30 07:15 Calm 16.09 Fair CLR 13 13 100% 76.05 0.0
30 06:55 Calm 16.09 Fair CLR 12 12 100% 76.02 0.0
30 06:35 Calm 16.09 Fair CLR 11 11 100% 76.02 0.0
30 06:15 SW 6 16.09 Fair CLR 11 11 100% 76.02 0.0
30 05:55 S 6 16.09 Fair CLR 10 10 100% 76 0.0
30 05:35 SE 6 16.09 Fair CLR 10 10 100% 76 0.0
30 05:15 SE 7 16.09 Fair CLR 11 11 100% 76 0.0
30 04:55 SE 7 16.09 Fair CLR 10 10 100% 9 76 0.0
30 04:35 SE 9 16.09 Fair CLR 11 11 100% 76 0.0
30 04:15 SE 9 16.09 Fair CLR 10 10 100% 9 76 0.0
30 03:55 SE 9 16.09 Fair CLR 10 10 100% 9 76 0.0
30 03:35 SE 9 16.09 Fair CLR 11 11 100% 76 0.0
30 03:15 SE 11 16.09 Fair CLR 0 0 0% 76.02 0.0
30 02:55 SE 7 16.09 Fair CLR 12 11 94% 76.02 0.0
30 02:35 SE 9 16.09 Fair CLR 12 11 94% 76.05 0.0
30 02:15 SE 6 16.09 Fair CLR 12 12 100% 76.07 0.0
30 01:55 Calm 16.09 Fair CLR 11 11 100% 76.07 0.0
30 01:15 Calm 16.09 Fair CLR 12 11 94% 76.1 0.0
30 00:55 Calm 16.09 Fair CLR 12 11 94% 76.1 0.0
30 00:35 S 7 16.09 Fair CLR 12 11 94% 76.1 0.0
30 00:15 SE 15 16.09 Fair CLR 12 12 100% 76.1 0.0
29 23:55 SE 13 16.09 Fair CLR 12 12 100% 76.1 0.0
29 23:35 SE 11 16.09 Fair CLR 12 12 100% 76.1 0.0
29 23:15 SE 11 16.09 Fair CLR 13 12 94% 76.1 0.0
29 22:55 SE 9 16.09 Fair CLR 14 11 82% 76.07 0.0
29 22:35 S 13 16.09 Fair CLR 15 10 72% 76.07 0.0
29 22:15 S 9 16.09 Fair CLR 15 10 72% 76.07 0.0
29 21:55 S 6 16.09 Fair CLR 16 10 68% 76.07 0.0
29 21:35 S 7 16.09 Fair CLR 17 9 60% 76.05 0.0
29 21:15 S 9 16.09 Fair CLR 17 10 64% 76.05 0.0
29 20:55 S 9 16.09 Fair CLR 17 10 64% 76.05 0.0
29 20:35 SW 7 16.09 Fair CLR 18 10 60% 76.02 0.0
29 20:15 SW 11 16.09 Fair CLR 19 12 64% 76.02 0.0
29 19:55 SW 15 16.09 Fair CLR 20 14 69% 76 0.0
29 19:35 SW 19 G 28 16.09 Fair CLR 22 13 57% 75.97 0.0
29 19:15 SW 26 16.09 Fair CLR 24 14 54% 25 75.97 0.0
29 18:55 W 9 16.09 Fair CLR 27 4 23% 26 75.97 0.0
29 18:35 W 7 16.09 Fair CLR 27 5 24% 26 75.97 0.0
29 18:15 NW 11 16.09 Fair CLR 27 6 26% 26 76 0.0
Date Time (pdt) Wind (kph) Vis. (km) Weather Sky Cond. Air Dwpt Max. Min. Relative Humidity Wind Chill (°C) Heat Index (°C) altimeter (cm) sea level (mb) 1 hr 3 hr 6 hr
6 hour
Temperature (ºC) Pressure Precipitation (cm)